sensor_id;sensor_type;location;lat;lon;timestamp;P1;durP1;ratioP1;P2;durP2;ratioP2
21501;SDS011;27639;48.674;9.242;2024-01-30T00:01:11;14.18;;;9.77;;
21501;SDS011;27639;48.674;9.242;2024-01-30T00:03:37;14.75;;;9.65;;
21501;SDS011;27639;48.674;9.242;2024-01-30T00:06:03;14.32;;;8.77;;
21501;SDS011;27639;48.674;9.242;2024-01-30T00:08:28;14.07;;;9.32;;
21501;SDS011;27639;48.674;9.242;2024-01-30T00:10:54;13.27;;;8.95;;
21501;SDS011;27639;48.674;9.242;2024-01-30T00:13:20;15.82;;;8.75;;
21501;SDS011;27639;48.674;9.242;2024-01-30T00:15:46;14.90;;;8.98;;
21501;SDS011;27639;48.674;9.242;2024-01-30T00:18:11;14.65;;;7.93;;
21501;SDS011;27639;48.674;9.242;2024-01-30T00:20:37;13.00;;;9.10;;
21501;SDS011;27639;48.674;9.242;2024-01-30T00:23:03;13.23;;;8.45;;
21501;SDS011;27639;48.674;9.242;2024-01-30T00:25:28;12.85;;;7.95;;
21501;SDS011;27639;48.674;9.242;2024-01-30T00:27:54;11.88;;;8.27;;
21501;SDS011;27639;48.674;9.242;2024-01-30T00:30:20;14.50;;;8.35;;
21501;SDS011;27639;48.674;9.242;2024-01-30T00:32:45;13.90;;;8.93;;
21501;SDS011;27639;48.674;9.242;2024-01-30T00:35:11;12.18;;;8.45;;
21501;SDS011;27639;48.674;9.242;2024-01-30T00:37:37;11.38;;;7.78;;
21501;SDS011;27639;48.674;9.242;2024-01-30T00:40:02;11.85;;;8.55;;
21501;SDS011;27639;48.674;9.242;2024-01-30T00:42:28;10.90;;;8.00;;
21501;SDS011;27639;48.674;9.242;2024-01-30T00:44:54;13.25;;;8.52;;
21501;SDS011;27639;48.674;9.242;2024-01-30T00:47:20;12.20;;;8.50;;
21501;SDS011;27639;48.674;9.242;2024-01-30T00:49:45;12.15;;;8.27;;
21501;SDS011;27639;48.674;9.242;2024-01-30T00:52:11;12.20;;;8.38;;
21501;SDS011;27639;48.674;9.242;2024-01-30T00:54:36;11.35;;;8.30;;
21501;SDS011;27639;48.674;9.242;2024-01-30T00:57:02;13.15;;;9.30;;
21501;SDS011;27639;48.674;9.242;2024-01-30T00:59:28;14.13;;;8.80;;
21501;SDS011;27639;48.674;9.242;2024-01-30T01:01:54;11.65;;;8.13;;
21501;SDS011;27639;48.674;9.242;2024-01-30T01:04:19;11.57;;;8.52;;
21501;SDS011;27639;48.674;9.242;2024-01-30T01:06:46;12.40;;;8.25;;
21501;SDS011;27639;48.674;9.242;2024-01-30T01:09:12;12.55;;;8.43;;
21501;SDS011;27639;48.674;9.242;2024-01-30T01:11:38;12.35;;;8.70;;
21501;SDS011;27639;48.674;9.242;2024-01-30T01:14:04;12.77;;;8.52;;
21501;SDS011;27639;48.674;9.242;2024-01-30T01:16:30;12.98;;;9.27;;
21501;SDS011;27639;48.674;9.242;2024-01-30T01:18:55;13.85;;;10.07;;
21501;SDS011;27639;48.674;9.242;2024-01-30T01:21:21;11.63;;;8.25;;
21501;SDS011;27639;48.674;9.242;2024-01-30T01:23:48;14.27;;;9.20;;
21501;SDS011;27639;48.674;9.242;2024-01-30T01:26:13;11.95;;;8.35;;
21501;SDS011;27639;48.674;9.242;2024-01-30T01:28:40;12.25;;;7.75;;
21501;SDS011;27639;48.674;9.242;2024-01-30T01:31:06;10.55;;;7.60;;
21501;SDS011;27639;48.674;9.242;2024-01-30T01:33:32;11.32;;;7.57;;
21501;SDS011;27639;48.674;9.242;2024-01-30T01:35:58;13.50;;;8.25;;
21501;SDS011;27639;48.674;9.242;2024-01-30T01:38:24;11.77;;;8.30;;
21501;SDS011;27639;48.674;9.242;2024-01-30T01:40:50;11.18;;;7.93;;
21501;SDS011;27639;48.674;9.242;2024-01-30T01:43:16;11.90;;;8.32;;
21501;SDS011;27639;48.674;9.242;2024-01-30T01:45:42;11.05;;;7.88;;
21501;SDS011;27639;48.674;9.242;2024-01-30T01:48:07;11.98;;;8.50;;
21501;SDS011;27639;48.674;9.242;2024-01-30T01:50:34;11.95;;;8.02;;
21501;SDS011;27639;48.674;9.242;2024-01-30T01:53:00;10.98;;;7.68;;
21501;SDS011;27639;48.674;9.242;2024-01-30T01:55:28;11.50;;;8.35;;
21501;SDS011;27639;48.674;9.242;2024-01-30T01:57:55;13.07;;;9.20;;
21501;SDS011;27639;48.674;9.242;2024-01-30T02:00:21;11.20;;;7.88;;
21501;SDS011;27639;48.674;9.242;2024-01-30T02:02:48;11.18;;;8.32;;
21501;SDS011;27639;48.674;9.242;2024-01-30T02:05:15;12.07;;;8.02;;
21501;SDS011;27639;48.674;9.242;2024-01-30T02:07:41;12.35;;;8.27;;
21501;SDS011;27639;48.674;9.242;2024-01-30T02:10:08;12.32;;;8.68;;
21501;SDS011;27639;48.674;9.242;2024-01-30T02:12:36;12.43;;;8.63;;
21501;SDS011;27639;48.674;9.242;2024-01-30T02:15:02;14.90;;;8.98;;
21501;SDS011;27639;48.674;9.242;2024-01-30T02:17:29;12.48;;;8.93;;
21501;SDS011;27639;48.674;9.242;2024-01-30T02:19:55;13.23;;;9.07;;
21501;SDS011;27639;48.674;9.242;2024-01-30T02:22:21;13.50;;;8.45;;
21501;SDS011;27639;48.674;9.242;2024-01-30T02:24:48;11.38;;;8.80;;
21501;SDS011;27639;48.674;9.242;2024-01-30T02:27:14;11.25;;;8.10;;
21501;SDS011;27639;48.674;9.242;2024-01-30T02:29:39;12.32;;;8.27;;
21501;SDS011;27639;48.674;9.242;2024-01-30T02:32:05;12.40;;;8.32;;
21501;SDS011;27639;48.674;9.242;2024-01-30T02:34:32;12.27;;;8.40;;
21501;SDS011;27639;48.674;9.242;2024-01-30T02:36:58;11.90;;;8.25;;
21501;SDS011;27639;48.674;9.242;2024-01-30T02:39:23;12.48;;;8.25;;
21501;SDS011;27639;48.674;9.242;2024-01-30T02:41:49;11.80;;;8.20;;
21501;SDS011;27639;48.674;9.242;2024-01-30T02:44:15;11.55;;;8.70;;
21501;SDS011;27639;48.674;9.242;2024-01-30T02:46:40;12.38;;;8.40;;
21501;SDS011;27639;48.674;9.242;2024-01-30T02:49:06;11.45;;;8.10;;
21501;SDS011;27639;48.674;9.242;2024-01-30T02:51:32;12.65;;;8.15;;
21501;SDS011;27639;48.674;9.242;2024-01-30T02:53:57;11.70;;;8.38;;
21501;SDS011;27639;48.674;9.242;2024-01-30T02:56:23;11.98;;;8.00;;
21501;SDS011;27639;48.674;9.242;2024-01-30T02:58:48;11.30;;;7.82;;
21501;SDS011;27639;48.674;9.242;2024-01-30T03:01:14;12.45;;;8.30;;
21501;SDS011;27639;48.674;9.242;2024-01-30T03:03:39;11.48;;;8.20;;
21501;SDS011;27639;48.674;9.242;2024-01-30T03:06:05;10.80;;;7.85;;
21501;SDS011;27639;48.674;9.242;2024-01-30T03:08:32;13.55;;;7.85;;
21501;SDS011;27639;48.674;9.242;2024-01-30T03:10:57;11.38;;;7.53;;
21501;SDS011;27639;48.674;9.242;2024-01-30T03:13:23;12.02;;;7.88;;
21501;SDS011;27639;48.674;9.242;2024-01-30T03:15:50;10.93;;;7.85;;
21501;SDS011;27639;48.674;9.242;2024-01-30T03:18:15;12.75;;;8.13;;
21501;SDS011;27639;48.674;9.242;2024-01-30T03:20:41;11.32;;;7.88;;
21501;SDS011;27639;48.674;9.242;2024-01-30T03:23:06;11.27;;;7.90;;
21501;SDS011;27639;48.674;9.242;2024-01-30T03:25:32;11.55;;;8.02;;
21501;SDS011;27639;48.674;9.242;2024-01-30T03:27:58;12.05;;;8.32;;
21501;SDS011;27639;48.674;9.242;2024-01-30T03:30:23;11.55;;;7.63;;
21501;SDS011;27639;48.674;9.242;2024-01-30T03:32:49;11.80;;;7.93;;
21501;SDS011;27639;48.674;9.242;2024-01-30T03:35:15;10.25;;;6.88;;
21501;SDS011;27639;48.674;9.242;2024-01-30T03:37:41;11.10;;;7.85;;
21501;SDS011;27639;48.674;9.242;2024-01-30T03:40:06;12.38;;;8.40;;
21501;SDS011;27639;48.674;9.242;2024-01-30T03:42:32;12.45;;;8.05;;
21501;SDS011;27639;48.674;9.242;2024-01-30T03:44:58;9.75;;;7.63;;
21501;SDS011;27639;48.674;9.242;2024-01-30T03:47:23;11.43;;;7.95;;
21501;SDS011;27639;48.674;9.242;2024-01-30T03:49:49;12.35;;;8.55;;
21501;SDS011;27639;48.674;9.242;2024-01-30T03:52:15;12.85;;;8.13;;
21501;SDS011;27639;48.674;9.242;2024-01-30T03:54:40;11.38;;;8.25;;
21501;SDS011;27639;48.674;9.242;2024-01-30T03:57:06;12.77;;;8.43;;
21501;SDS011;27639;48.674;9.242;2024-01-30T03:59:31;11.35;;;7.43;;
21501;SDS011;27639;48.674;9.242;2024-01-30T04:01:57;10.75;;;8.10;;
21501;SDS011;27639;48.674;9.242;2024-01-30T04:04:22;10.20;;;7.28;;
21501;SDS011;27639;48.674;9.242;2024-01-30T04:06:48;10.25;;;7.50;;
21501;SDS011;27639;48.674;9.242;2024-01-30T04:09:14;12.23;;;8.52;;
21501;SDS011;27639;48.674;9.242;2024-01-30T04:11:40;9.98;;;7.32;;
21501;SDS011;27639;48.674;9.242;2024-01-30T04:14:07;12.15;;;7.88;;
21501;SDS011;27639;48.674;9.242;2024-01-30T04:16:33;11.27;;;7.88;;
21501;SDS011;27639;48.674;9.242;2024-01-30T04:18:58;12.45;;;8.70;;
21501;SDS011;27639;48.674;9.242;2024-01-30T04:21:24;12.57;;;8.20;;
21501;SDS011;27639;48.674;9.242;2024-01-30T04:23:50;12.15;;;7.82;;
21501;SDS011;27639;48.674;9.242;2024-01-30T04:26:16;11.20;;;7.88;;
21501;SDS011;27639;48.674;9.242;2024-01-30T04:28:42;12.35;;;7.85;;
21501;SDS011;27639;48.674;9.242;2024-01-30T04:31:08;11.13;;;7.35;;
21501;SDS011;27639;48.674;9.242;2024-01-30T04:33:34;12.13;;;8.35;;
21501;SDS011;27639;48.674;9.242;2024-01-30T04:36:00;11.27;;;7.55;;
21501;SDS011;27639;48.674;9.242;2024-01-30T04:38:25;11.95;;;8.82;;
21501;SDS011;27639;48.674;9.242;2024-01-30T04:40:51;11.98;;;8.52;;
21501;SDS011;27639;48.674;9.242;2024-01-30T04:43:16;11.80;;;7.93;;
21501;SDS011;27639;48.674;9.242;2024-01-30T04:45:42;11.15;;;7.90;;
21501;SDS011;27639;48.674;9.242;2024-01-30T04:48:07;11.65;;;8.35;;
21501;SDS011;27639;48.674;9.242;2024-01-30T04:50:33;12.63;;;7.68;;
21501;SDS011;27639;48.674;9.242;2024-01-30T04:52:58;11.10;;;8.23;;
21501;SDS011;27639;48.674;9.242;2024-01-30T04:55:24;12.98;;;8.52;;
21501;SDS011;27639;48.674;9.242;2024-01-30T04:57:50;11.27;;;8.18;;
21501;SDS011;27639;48.674;9.242;2024-01-30T05:00:15;11.18;;;8.05;;
21501;SDS011;27639;48.674;9.242;2024-01-30T05:02:41;11.85;;;8.32;;
21501;SDS011;27639;48.674;9.242;2024-01-30T05:05:07;11.18;;;8.30;;
21501;SDS011;27639;48.674;9.242;2024-01-30T05:07:33;12.63;;;8.43;;
21501;SDS011;27639;48.674;9.242;2024-01-30T05:09:59;13.93;;;8.35;;
21501;SDS011;27639;48.674;9.242;2024-01-30T05:12:25;12.60;;;7.82;;
21501;SDS011;27639;48.674;9.242;2024-01-30T05:14:51;11.25;;;7.60;;
21501;SDS011;27639;48.674;9.242;2024-01-30T05:17:16;12.43;;;8.20;;
21501;SDS011;27639;48.674;9.242;2024-01-30T05:19:42;12.05;;;7.60;;
21501;SDS011;27639;48.674;9.242;2024-01-30T05:22:08;12.60;;;8.40;;
21501;SDS011;27639;48.674;9.242;2024-01-30T05:24:34;12.25;;;8.23;;
21501;SDS011;27639;48.674;9.242;2024-01-30T05:27:00;12.32;;;8.57;;
21501;SDS011;27639;48.674;9.242;2024-01-30T05:29:26;11.88;;;8.55;;
21501;SDS011;27639;48.674;9.242;2024-01-30T05:31:52;13.27;;;8.40;;
21501;SDS011;27639;48.674;9.242;2024-01-30T05:34:18;12.25;;;8.43;;
21501;SDS011;27639;48.674;9.242;2024-01-30T05:36:43;11.27;;;8.55;;
21501;SDS011;27639;48.674;9.242;2024-01-30T05:39:09;12.63;;;8.55;;
21501;SDS011;27639;48.674;9.242;2024-01-30T05:41:35;10.77;;;7.93;;
21501;SDS011;27639;48.674;9.242;2024-01-30T05:44:01;11.23;;;7.80;;
21501;SDS011;27639;48.674;9.242;2024-01-30T05:46:26;12.45;;;8.55;;
21501;SDS011;27639;48.674;9.242;2024-01-30T05:48:52;13.20;;;8.02;;
21501;SDS011;27639;48.674;9.242;2024-01-30T05:51:18;13.43;;;8.45;;
21501;SDS011;27639;48.674;9.242;2024-01-30T05:53:43;12.63;;;8.45;;
21501;SDS011;27639;48.674;9.242;2024-01-30T05:56:09;14.10;;;9.23;;
21501;SDS011;27639;48.674;9.242;2024-01-30T05:58:34;12.45;;;8.27;;
21501;SDS011;27639;48.674;9.242;2024-01-30T06:01:00;10.60;;;8.02;;
21501;SDS011;27639;48.674;9.242;2024-01-30T06:03:25;12.70;;;8.98;;
21501;SDS011;27639;48.674;9.242;2024-01-30T06:05:51;11.65;;;8.48;;
21501;SDS011;27639;48.674;9.242;2024-01-30T06:08:17;11.43;;;8.05;;
21501;SDS011;27639;48.674;9.242;2024-01-30T06:10:43;13.18;;;9.23;;
21501;SDS011;27639;48.674;9.242;2024-01-30T06:13:08;11.48;;;8.18;;
21501;SDS011;27639;48.674;9.242;2024-01-30T06:15:34;11.82;;;8.48;;
21501;SDS011;27639;48.674;9.242;2024-01-30T06:17:59;12.52;;;9.13;;
21501;SDS011;27639;48.674;9.242;2024-01-30T06:20:25;13.50;;;9.45;;
21501;SDS011;27639;48.674;9.242;2024-01-30T06:22:51;14.32;;;9.40;;
21501;SDS011;27639;48.674;9.242;2024-01-30T06:25:16;12.77;;;8.80;;
21501;SDS011;27639;48.674;9.242;2024-01-30T06:27:42;13.02;;;8.75;;
21501;SDS011;27639;48.674;9.242;2024-01-30T06:30:08;15.50;;;9.15;;
21501;SDS011;27639;48.674;9.242;2024-01-30T06:32:35;12.48;;;8.88;;
21501;SDS011;27639;48.674;9.242;2024-01-30T06:35:01;13.52;;;8.80;;
21501;SDS011;27639;48.674;9.242;2024-01-30T06:37:27;14.32;;;9.77;;
21501;SDS011;27639;48.674;9.242;2024-01-30T06:39:52;13.98;;;9.55;;
21501;SDS011;27639;48.674;9.242;2024-01-30T06:42:18;14.60;;;9.55;;
21501;SDS011;27639;48.674;9.242;2024-01-30T06:44:44;13.07;;;10.13;;
21501;SDS011;27639;48.674;9.242;2024-01-30T06:47:09;13.20;;;9.95;;
21501;SDS011;27639;48.674;9.242;2024-01-30T06:49:35;13.70;;;9.52;;
21501;SDS011;27639;48.674;9.242;2024-01-30T06:52:04;14.77;;;10.45;;
21501;SDS011;27639;48.674;9.242;2024-01-30T06:54:31;17.23;;;11.07;;
21501;SDS011;27639;48.674;9.242;2024-01-30T06:56:57;14.88;;;10.75;;
21501;SDS011;27639;48.674;9.242;2024-01-30T06:59:23;15.05;;;10.63;;
21501;SDS011;27639;48.674;9.242;2024-01-30T07:01:49;17.63;;;11.60;;
21501;SDS011;27639;48.674;9.242;2024-01-30T07:04:14;16.08;;;11.45;;
21501;SDS011;27639;48.674;9.242;2024-01-30T07:06:41;16.80;;;11.85;;
21501;SDS011;27639;48.674;9.242;2024-01-30T07:09:06;15.43;;;11.00;;
21501;SDS011;27639;48.674;9.242;2024-01-30T07:11:32;16.90;;;11.63;;
21501;SDS011;27639;48.674;9.242;2024-01-30T07:13:57;15.98;;;11.57;;
21501;SDS011;27639;48.674;9.242;2024-01-30T07:16:23;17.52;;;11.65;;
21501;SDS011;27639;48.674;9.242;2024-01-30T07:18:49;16.23;;;11.18;;
21501;SDS011;27639;48.674;9.242;2024-01-30T07:21:15;19.48;;;11.75;;
21501;SDS011;27639;48.674;9.242;2024-01-30T07:23:40;18.85;;;12.90;;
21501;SDS011;27639;48.674;9.242;2024-01-30T07:26:07;16.95;;;12.20;;
21501;SDS011;27639;48.674;9.242;2024-01-30T07:28:33;17.08;;;11.77;;
21501;SDS011;27639;48.674;9.242;2024-01-30T07:30:59;15.27;;;11.13;;
21501;SDS011;27639;48.674;9.242;2024-01-30T07:33:25;17.90;;;11.90;;
21501;SDS011;27639;48.674;9.242;2024-01-30T07:35:52;16.98;;;11.43;;
21501;SDS011;27639;48.674;9.242;2024-01-30T07:38:18;19.77;;;11.68;;
21501;SDS011;27639;48.674;9.242;2024-01-30T07:40:44;18.98;;;12.82;;
21501;SDS011;27639;48.674;9.242;2024-01-30T07:43:09;16.38;;;12.38;;
21501;SDS011;27639;48.674;9.242;2024-01-30T07:45:35;17.52;;;12.77;;
21501;SDS011;27639;48.674;9.242;2024-01-30T07:48:02;16.40;;;12.38;;
21501;SDS011;27639;48.674;9.242;2024-01-30T07:50:28;17.05;;;12.98;;
21501;SDS011;27639;48.674;9.242;2024-01-30T07:52:55;16.95;;;12.27;;
21501;SDS011;27639;48.674;9.242;2024-01-30T07:55:21;15.70;;;12.25;;
21501;SDS011;27639;48.674;9.242;2024-01-30T07:57:53;18.35;;;12.45;;
21501;SDS011;27639;48.674;9.242;2024-01-30T08:00:20;18.42;;;12.50;;
21501;SDS011;27639;48.674;9.242;2024-01-30T08:02:46;15.82;;;11.85;;
21501;SDS011;27639;48.674;9.242;2024-01-30T08:05:12;17.80;;;12.80;;
21501;SDS011;27639;48.674;9.242;2024-01-30T08:07:40;16.90;;;12.18;;
21501;SDS011;27639;48.674;9.242;2024-01-30T08:10:06;15.52;;;12.30;;
21501;SDS011;27639;48.674;9.242;2024-01-30T08:12:32;16.95;;;12.55;;
21501;SDS011;27639;48.674;9.242;2024-01-30T08:14:58;18.00;;;12.45;;
21501;SDS011;27639;48.674;9.242;2024-01-30T08:17:23;18.20;;;11.82;;
21501;SDS011;27639;48.674;9.242;2024-01-30T08:19:49;19.27;;;13.10;;
21501;SDS011;27639;48.674;9.242;2024-01-30T08:22:14;15.77;;;12.02;;
21501;SDS011;27639;48.674;9.242;2024-01-30T08:24:40;20.77;;;13.57;;
21501;SDS011;27639;48.674;9.242;2024-01-30T08:27:06;17.10;;;13.05;;
21501;SDS011;27639;48.674;9.242;2024-01-30T08:29:34;19.30;;;14.00;;
21501;SDS011;27639;48.674;9.242;2024-01-30T08:32:00;16.25;;;13.13;;
21501;SDS011;27639;48.674;9.242;2024-01-30T08:34:26;15.35;;;12.05;;
21501;SDS011;27639;48.674;9.242;2024-01-30T08:36:52;16.77;;;12.23;;
21501;SDS011;27639;48.674;9.242;2024-01-30T08:39:18;14.95;;;12.25;;
21501;SDS011;27639;48.674;9.242;2024-01-30T08:41:44;17.20;;;12.18;;
21501;SDS011;27639;48.674;9.242;2024-01-30T08:44:09;16.35;;;12.57;;
21501;SDS011;27639;48.674;9.242;2024-01-30T08:46:36;16.80;;;12.57;;
21501;SDS011;27639;48.674;9.242;2024-01-30T08:49:01;17.10;;;13.95;;
21501;SDS011;27639;48.674;9.242;2024-01-30T08:51:29;17.52;;;12.95;;
21501;SDS011;27639;48.674;9.242;2024-01-30T08:53:54;15.13;;;12.38;;
21501;SDS011;27639;48.674;9.242;2024-01-30T08:56:20;15.70;;;12.02;;
21501;SDS011;27639;48.674;9.242;2024-01-30T08:58:45;17.52;;;11.88;;
21501;SDS011;27639;48.674;9.242;2024-01-30T09:01:11;18.10;;;13.02;;
21501;SDS011;27639;48.674;9.242;2024-01-30T09:03:37;18.48;;;11.30;;
21501;SDS011;27639;48.674;9.242;2024-01-30T09:06:08;14.15;;;11.30;;
21501;SDS011;27639;48.674;9.242;2024-01-30T09:08:34;14.25;;;10.80;;
21501;SDS011;27639;48.674;9.242;2024-01-30T09:10:59;15.10;;;10.50;;
21501;SDS011;27639;48.674;9.242;2024-01-30T09:13:25;15.10;;;10.88;;
21501;SDS011;27639;48.674;9.242;2024-01-30T09:15:50;14.30;;;10.48;;
21501;SDS011;27639;48.674;9.242;2024-01-30T09:18:16;14.13;;;10.75;;
21501;SDS011;27639;48.674;9.242;2024-01-30T09:20:41;14.27;;;10.60;;
21501;SDS011;27639;48.674;9.242;2024-01-30T09:23:07;14.88;;;11.25;;
21501;SDS011;27639;48.674;9.242;2024-01-30T09:25:33;14.55;;;10.63;;
21501;SDS011;27639;48.674;9.242;2024-01-30T09:27:59;14.93;;;10.55;;
21501;SDS011;27639;48.674;9.242;2024-01-30T09:30:25;16.30;;;10.77;;
21501;SDS011;27639;48.674;9.242;2024-01-30T09:32:50;15.25;;;11.27;;
21501;SDS011;27639;48.674;9.242;2024-01-30T09:35:16;14.30;;;10.90;;
21501;SDS011;27639;48.674;9.242;2024-01-30T09:37:41;16.38;;;11.65;;
21501;SDS011;27639;48.674;9.242;2024-01-30T09:40:07;13.55;;;11.43;;
21501;SDS011;27639;48.674;9.242;2024-01-30T09:42:34;15.25;;;11.60;;
21501;SDS011;27639;48.674;9.242;2024-01-30T09:45:03;15.48;;;11.13;;
21501;SDS011;27639;48.674;9.242;2024-01-30T09:47:36;15.82;;;11.60;;
21501;SDS011;27639;48.674;9.242;2024-01-30T09:50:09;19.35;;;12.63;;
21501;SDS011;27639;48.674;9.242;2024-01-30T09:52:36;18.33;;;11.30;;
21501;SDS011;27639;48.674;9.242;2024-01-30T09:55:02;16.00;;;11.82;;
21501;SDS011;27639;48.674;9.242;2024-01-30T09:57:28;15.13;;;11.60;;
21501;SDS011;27639;48.674;9.242;2024-01-30T09:59:54;15.73;;;11.82;;
21501;SDS011;27639;48.674;9.242;2024-01-30T10:02:20;16.35;;;11.30;;
21501;SDS011;27639;48.674;9.242;2024-01-30T10:04:50;15.85;;;11.90;;
21501;SDS011;27639;48.674;9.242;2024-01-30T10:07:16;15.05;;;10.90;;
21501;SDS011;27639;48.674;9.242;2024-01-30T10:09:45;15.30;;;11.20;;
21501;SDS011;27639;48.674;9.242;2024-01-30T10:12:11;14.38;;;10.20;;
21501;SDS011;27639;48.674;9.242;2024-01-30T10:14:41;14.88;;;11.00;;
21501;SDS011;27639;48.674;9.242;2024-01-30T10:17:08;14.93;;;11.45;;
21501;SDS011;27639;48.674;9.242;2024-01-30T10:19:34;15.43;;;11.60;;
21501;SDS011;27639;48.674;9.242;2024-01-30T10:22:00;14.82;;;10.43;;
21501;SDS011;27639;48.674;9.242;2024-01-30T10:24:26;15.32;;;11.88;;
21501;SDS011;27639;48.674;9.242;2024-01-30T10:26:53;15.45;;;11.20;;
21501;SDS011;27639;48.674;9.242;2024-01-30T10:29:18;13.52;;;11.02;;
21501;SDS011;27639;48.674;9.242;2024-01-30T10:31:44;14.65;;;11.27;;
21501;SDS011;27639;48.674;9.242;2024-01-30T10:34:10;19.13;;;11.23;;
21501;SDS011;27639;48.674;9.242;2024-01-30T10:36:41;14.85;;;10.45;;
21501;SDS011;27639;48.674;9.242;2024-01-30T10:39:11;14.75;;;11.50;;
21501;SDS011;27639;48.674;9.242;2024-01-30T10:41:43;15.48;;;11.18;;
21501;SDS011;27639;48.674;9.242;2024-01-30T10:44:10;13.00;;;11.00;;
21501;SDS011;27639;48.674;9.242;2024-01-30T10:46:39;16.25;;;11.73;;
21501;SDS011;27639;48.674;9.242;2024-01-30T10:49:07;15.27;;;11.10;;
21501;SDS011;27639;48.674;9.242;2024-01-30T10:51:34;17.08;;;11.80;;
21501;SDS011;27639;48.674;9.242;2024-01-30T10:54:00;15.73;;;10.95;;
21501;SDS011;27639;48.674;9.242;2024-01-30T10:56:28;12.27;;;10.10;;
21501;SDS011;27639;48.674;9.242;2024-01-30T10:58:56;14.15;;;10.93;;
21501;SDS011;27639;48.674;9.242;2024-01-30T11:01:22;12.77;;;10.43;;
21501;SDS011;27639;48.674;9.242;2024-01-30T11:03:51;15.70;;;11.57;;
21501;SDS011;27639;48.674;9.242;2024-01-30T11:06:18;13.02;;;10.50;;
21501;SDS011;27639;48.674;9.242;2024-01-30T11:08:59;14.18;;;10.30;;
21501;SDS011;27639;48.674;9.242;2024-01-30T11:11:27;15.18;;;11.18;;
21501;SDS011;27639;48.674;9.242;2024-01-30T11:13:52;14.23;;;11.30;;
21501;SDS011;27639;48.674;9.242;2024-01-30T11:16:19;13.65;;;10.98;;
21501;SDS011;27639;48.674;9.242;2024-01-30T11:18:49;14.45;;;10.95;;
21501;SDS011;27639;48.674;9.242;2024-01-30T11:21:16;13.18;;;10.20;;
21501;SDS011;27639;48.674;9.242;2024-01-30T11:23:42;13.63;;;10.73;;
21501;SDS011;27639;48.674;9.242;2024-01-30T11:26:09;12.85;;;10.50;;
21501;SDS011;27639;48.674;9.242;2024-01-30T11:28:35;13.82;;;10.57;;
21501;SDS011;27639;48.674;9.242;2024-01-30T11:31:04;14.45;;;12.23;;
21501;SDS011;27639;48.674;9.242;2024-01-30T11:33:30;16.23;;;13.13;;
21501;SDS011;27639;48.674;9.242;2024-01-30T11:35:59;13.88;;;11.52;;
21501;SDS011;27639;48.674;9.242;2024-01-30T11:38:26;15.85;;;11.27;;
21501;SDS011;27639;48.674;9.242;2024-01-30T11:40:53;16.17;;;11.73;;
21501;SDS011;27639;48.674;9.242;2024-01-30T11:43:21;14.57;;;11.75;;
21501;SDS011;27639;48.674;9.242;2024-01-30T11:45:47;15.73;;;11.13;;
21501;SDS011;27639;48.674;9.242;2024-01-30T11:48:13;13.93;;;10.80;;
21501;SDS011;27639;48.674;9.242;2024-01-30T11:50:39;14.32;;;11.45;;
21501;SDS011;27639;48.674;9.242;2024-01-30T11:53:05;15.32;;;11.00;;
21501;SDS011;27639;48.674;9.242;2024-01-30T11:55:31;18.25;;;16.20;;
21501;SDS011;27639;48.674;9.242;2024-01-30T11:57:58;18.75;;;11.73;;
21501;SDS011;27639;48.674;9.242;2024-01-30T12:00:24;15.70;;;10.95;;
21501;SDS011;27639;48.674;9.242;2024-01-30T12:02:53;13.75;;;10.63;;
21501;SDS011;27639;48.674;9.242;2024-01-30T12:05:23;14.80;;;10.95;;
21501;SDS011;27639;48.674;9.242;2024-01-30T12:07:49;14.40;;;10.73;;
21501;SDS011;27639;48.674;9.242;2024-01-30T12:10:15;14.95;;;10.52;;
21501;SDS011;27639;48.674;9.242;2024-01-30T12:12:42;14.88;;;10.90;;
21501;SDS011;27639;48.674;9.242;2024-01-30T12:15:08;14.43;;;10.80;;
21501;SDS011;27639;48.674;9.242;2024-01-30T12:17:35;13.73;;;11.57;;
21501;SDS011;27639;48.674;9.242;2024-01-30T12:20:04;14.98;;;10.73;;
21501;SDS011;27639;48.674;9.242;2024-01-30T12:22:32;13.85;;;10.98;;
21501;SDS011;27639;48.674;9.242;2024-01-30T12:25:00;14.93;;;11.30;;
21501;SDS011;27639;48.674;9.242;2024-01-30T12:27:26;15.95;;;12.07;;
21501;SDS011;27639;48.674;9.242;2024-01-30T12:29:56;17.67;;;13.68;;
21501;SDS011;27639;48.674;9.242;2024-01-30T12:32:25;15.23;;;10.88;;
21501;SDS011;27639;48.674;9.242;2024-01-30T12:34:50;14.38;;;10.75;;
21501;SDS011;27639;48.674;9.242;2024-01-30T12:37:19;16.35;;;11.80;;
21501;SDS011;27639;48.674;9.242;2024-01-30T12:39:47;14.60;;;10.75;;
21501;SDS011;27639;48.674;9.242;2024-01-30T12:42:13;14.20;;;11.45;;
21501;SDS011;27639;48.674;9.242;2024-01-30T12:44:39;14.95;;;11.70;;
21501;SDS011;27639;48.674;9.242;2024-01-30T12:47:06;15.35;;;12.57;;
21501;SDS011;27639;48.674;9.242;2024-01-30T12:49:34;16.38;;;12.68;;
21501;SDS011;27639;48.674;9.242;2024-01-30T12:51:59;18.88;;;13.10;;
21501;SDS011;27639;48.674;9.242;2024-01-30T12:54:25;15.45;;;12.90;;
21501;SDS011;27639;48.674;9.242;2024-01-30T12:56:50;13.52;;;10.68;;
21501;SDS011;27639;48.674;9.242;2024-01-30T12:59:16;16.50;;;13.15;;
21501;SDS011;27639;48.674;9.242;2024-01-30T13:01:41;15.57;;;13.50;;
21501;SDS011;27639;48.674;9.242;2024-01-30T13:04:07;14.98;;;12.35;;
21501;SDS011;27639;48.674;9.242;2024-01-30T13:06:33;13.23;;;11.18;;
21501;SDS011;27639;48.674;9.242;2024-01-30T13:08:58;13.57;;;10.43;;
21501;SDS011;27639;48.674;9.242;2024-01-30T13:11:24;13.20;;;10.85;;
21501;SDS011;27639;48.674;9.242;2024-01-30T13:13:50;12.82;;;11.07;;
21501;SDS011;27639;48.674;9.242;2024-01-30T13:16:16;16.45;;;11.98;;
21501;SDS011;27639;48.674;9.242;2024-01-30T13:18:43;14.20;;;11.45;;
21501;SDS011;27639;48.674;9.242;2024-01-30T13:21:09;19.80;;;12.93;;
21501;SDS011;27639;48.674;9.242;2024-01-30T13:23:34;18.40;;;13.05;;
21501;SDS011;27639;48.674;9.242;2024-01-30T13:26:00;15.45;;;11.65;;
21501;SDS011;27639;48.674;9.242;2024-01-30T13:28:26;16.48;;;11.05;;
21501;SDS011;27639;48.674;9.242;2024-01-30T13:30:51;17.17;;;10.57;;
21501;SDS011;27639;48.674;9.242;2024-01-30T13:33:17;15.38;;;11.38;;
21501;SDS011;27639;48.674;9.242;2024-01-30T13:35:43;16.40;;;11.40;;
21501;SDS011;27639;48.674;9.242;2024-01-30T13:38:08;15.00;;;11.25;;
21501;SDS011;27639;48.674;9.242;2024-01-30T13:40:34;18.80;;;12.32;;
21501;SDS011;27639;48.674;9.242;2024-01-30T13:42:59;14.35;;;11.02;;
21501;SDS011;27639;48.674;9.242;2024-01-30T13:45:25;18.92;;;13.15;;
21501;SDS011;27639;48.674;9.242;2024-01-30T13:47:51;17.88;;;13.18;;
21501;SDS011;27639;48.674;9.242;2024-01-30T13:50:16;18.75;;;13.30;;
21501;SDS011;27639;48.674;9.242;2024-01-30T13:52:42;15.45;;;11.88;;
21501;SDS011;27639;48.674;9.242;2024-01-30T13:55:08;17.20;;;12.95;;
21501;SDS011;27639;48.674;9.242;2024-01-30T13:57:35;19.02;;;14.75;;
21501;SDS011;27639;48.674;9.242;2024-01-30T14:00:02;19.48;;;14.95;;
21501;SDS011;27639;48.674;9.242;2024-01-30T14:02:30;23.10;;;15.38;;
21501;SDS011;27639;48.674;9.242;2024-01-30T14:04:56;16.60;;;13.55;;
21501;SDS011;27639;48.674;9.242;2024-01-30T14:07:21;20.65;;;13.52;;
21501;SDS011;27639;48.674;9.242;2024-01-30T14:09:47;18.58;;;13.63;;
21501;SDS011;27639;48.674;9.242;2024-01-30T14:12:14;15.10;;;12.23;;
21501;SDS011;27639;48.674;9.242;2024-01-30T14:14:39;17.02;;;14.23;;
21501;SDS011;27639;48.674;9.242;2024-01-30T14:17:05;16.05;;;12.45;;
21501;SDS011;27639;48.674;9.242;2024-01-30T14:19:32;22.77;;;16.27;;
21501;SDS011;27639;48.674;9.242;2024-01-30T14:22:01;19.05;;;14.65;;